sensor_id;sensor_type;location;lat;lon;timestamp;pressure;altitude;pressure_sealevel;temperature;humidity
1371;BME280;14306;49.942;11.570;2023-02-28T00:01:26;98520.38;;;-2.29;78.42
1371;BME280;14306;49.942;11.570;2023-02-28T00:03:55;98512.69;;;-2.17;78.74
1371;BME280;14306;49.942;11.570;2023-02-28T00:06:24;98519.63;;;-2.16;78.83
1371;BME280;14306;49.942;11.570;2023-02-28T00:08:54;98513.31;;;-2.15;78.55
1371;BME280;14306;49.942;11.570;2023-02-28T00:11:22;98518.00;;;-2.17;78.93
1371;BME280;14306;49.942;11.570;2023-02-28T00:13:51;98512.50;;;-2.16;78.55
1371;BME280;14306;49.942;11.570;2023-02-28T00:16:20;98516.69;;;-2.28;78.86
1371;BME280;14306;49.942;11.570;2023-02-28T00:18:49;98511.88;;;-2.18;78.54
1371;BME280;14306;49.942;11.570;2023-02-28T00:21:18;98509.63;;;-2.14;78.80
1371;BME280;14306;49.942;11.570;2023-02-28T00:23:47;98511.22;;;-2.26;78.47
1371;BME280;14306;49.942;11.570;2023-02-28T00:26:17;98516.59;;;-2.13;78.26
1371;BME280;14306;49.942;11.570;2023-02-28T00:28:47;98511.88;;;-2.18;79.08
1371;BME280;14306;49.942;11.570;2023-02-28T00:31:16;98515.34;;;-2.17;78.93
1371;BME280;14306;49.942;11.570;2023-02-28T00:33:44;98506.16;;;-2.21;78.79
1371;BME280;14306;49.942;11.570;2023-02-28T00:36:13;98501.91;;;-2.16;78.89
1371;BME280;14306;49.942;11.570;2023-02-28T00:38:41;98510.06;;;-2.11;79.03
1371;BME280;14306;49.942;11.570;2023-02-28T00:41:09;98508.66;;;-2.07;78.16
1371;BME280;14306;49.942;11.570;2023-02-28T00:43:39;98509.63;;;-2.14;78.33
1371;BME280;14306;49.942;11.570;2023-02-28T00:46:07;98501.47;;;-2.13;79.01
1371;BME280;14306;49.942;11.570;2023-02-28T00:48:36;98511.28;;;-2.13;79.35
1371;BME280;14306;49.942;11.570;2023-02-28T00:51:05;98504.94;;;-2.19;79.30
1371;BME280;14306;49.942;11.570;2023-02-28T00:53:33;98505.19;;;-2.07;79.42
1371;BME280;14306;49.942;11.570;2023-02-28T00:56:02;98502.16;;;-2.04;78.33
1371;BME280;14306;49.942;11.570;2023-02-28T00:58:30;98509.59;;;-2.21;79.12
1371;BME280;14306;49.942;11.570;2023-02-28T01:01:00;98499.69;;;-2.06;79.32
1371;BME280;14306;49.942;11.570;2023-02-28T01:03:28;98498.47;;;-2.03;79.16
1371;BME280;14306;49.942;11.570;2023-02-28T01:05:57;98504.13;;;-2.13;78.78
1371;BME280;14306;49.942;11.570;2023-02-28T01:08:26;98490.66;;;-2.18;79.77
1371;BME280;14306;49.942;11.570;2023-02-28T01:10:54;98500.31;;;-2.04;79.11
1371;BME280;14306;49.942;11.570;2023-02-28T01:13:22;98498.88;;;-2.06;79.14
1371;BME280;14306;49.942;11.570;2023-02-28T01:15:55;98503.06;;;-2.25;79.92
1371;BME280;14306;49.942;11.570;2023-02-28T01:18:25;98499.03;;;-2.14;79.64
1371;BME280;14306;49.942;11.570;2023-02-28T01:20:53;98497.00;;;-2.12;79.08
1371;BME280;14306;49.942;11.570;2023-02-28T01:23:23;98492.91;;;-2.21;79.49
1371;BME280;14306;49.942;11.570;2023-02-28T01:25:52;98497.16;;;-2.27;79.57
1371;BME280;14306;49.942;11.570;2023-02-28T01:28:21;98492.34;;;-2.10;79.67
1371;BME280;14306;49.942;11.570;2023-02-28T01:30:50;98495.97;;;-2.18;80.44
1371;BME280;14306;49.942;11.570;2023-02-28T01:33:18;98483.94;;;-2.14;79.92
1371;BME280;14306;49.942;11.570;2023-02-28T01:35:48;98493.09;;;-2.23;79.72
1371;BME280;14306;49.942;11.570;2023-02-28T01:38:16;98489.75;;;-2.38;80.04
1371;BME280;14306;49.942;11.570;2023-02-28T01:40:49;98483.06;;;-2.27;80.06
1371;BME280;14306;49.942;11.570;2023-02-28T01:43:22;98483.38;;;-2.43;80.35
1371;BME280;14306;49.942;11.570;2023-02-28T01:45:51;98479.84;;;-2.57;80.66
1371;BME280;14306;49.942;11.570;2023-02-28T01:48:22;98484.34;;;-2.51;80.72
1371;BME280;14306;49.942;11.570;2023-02-28T01:50:54;98476.53;;;-2.59;80.90
1371;BME280;14306;49.942;11.570;2023-02-28T01:53:31;98476.84;;;-2.75;80.83
1371;BME280;14306;49.942;11.570;2023-02-28T01:56:00;98476.25;;;-2.77;80.80
1371;BME280;14306;49.942;11.570;2023-02-28T01:58:32;98469.88;;;-2.82;81.27
1371;BME280;14306;49.942;11.570;2023-02-28T02:01:00;98470.47;;;-2.87;82.19
1371;BME280;14306;49.942;11.570;2023-02-28T02:03:30;98470.22;;;-2.92;81.20
1371;BME280;14306;49.942;11.570;2023-02-28T02:06:02;98471.78;;;-3.04;81.74
1371;BME280;14306;49.942;11.570;2023-02-28T02:08:30;98462.44;;;-3.00;82.28
1371;BME280;14306;49.942;11.570;2023-02-28T02:11:00;98464.13;;;-2.86;82.42
1371;BME280;14306;49.942;11.570;2023-02-28T02:13:38;98457.38;;;-3.16;81.92
1371;BME280;14306;49.942;11.570;2023-02-28T02:16:18;98457.88;;;-3.06;82.26
1371;BME280;14306;49.942;11.570;2023-02-28T02:18:53;98457.31;;;-3.01;82.06
1371;BME280;14306;49.942;11.570;2023-02-28T02:21:52;98455.63;;;-3.09;82.30
1371;BME280;14306;49.942;11.570;2023-02-28T02:27:32;98451.56;;;-3.05;82.45
1371;BME280;14306;49.942;11.570;2023-02-28T02:30:25;98447.78;;;-2.96;82.35
1371;BME280;14306;49.942;11.570;2023-02-28T02:33:08;98447.25;;;-3.12;81.91
1371;BME280;14306;49.942;11.570;2023-02-28T02:35:43;98443.19;;;-3.08;82.11
1371;BME280;14306;49.942;11.570;2023-02-28T02:38:19;98442.72;;;-3.18;82.25
1371;BME280;14306;49.942;11.570;2023-02-28T02:40:56;98446.56;;;-3.21;82.92
1371;BME280;14306;49.942;11.570;2023-02-28T02:43:30;98450.59;;;-3.04;82.80
1371;BME280;14306;49.942;11.570;2023-02-28T02:46:04;98446.72;;;-3.01;82.88
1371;BME280;14306;49.942;11.570;2023-02-28T02:48:36;98447.16;;;-2.98;82.87
1371;BME280;14306;49.942;11.570;2023-02-28T02:51:10;98437.41;;;-2.91;82.84
1371;BME280;14306;49.942;11.570;2023-02-28T02:53:42;98449.06;;;-3.13;81.79
1371;BME280;14306;49.942;11.570;2023-02-28T02:56:14;98440.56;;;-3.29;82.61
1371;BME280;14306;49.942;11.570;2023-02-28T02:58:43;98449.03;;;-3.19;82.55
1371;BME280;14306;49.942;11.570;2023-02-28T03:01:16;98451.94;;;-3.35;82.35
1371;BME280;14306;49.942;11.570;2023-02-28T03:03:56;98449.81;;;-3.46;82.62
1371;BME280;14306;49.942;11.570;2023-02-28T03:06:27;98454.22;;;-3.53;82.66
1371;BME280;14306;49.942;11.570;2023-02-28T03:08:55;98454.22;;;-3.32;82.37
1371;BME280;14306;49.942;11.570;2023-02-28T03:11:23;98453.06;;;-3.44;82.33
1371;BME280;14306;49.942;11.570;2023-02-28T03:14:04;98449.94;;;-3.54;83.19
1371;BME280;14306;49.942;11.570;2023-02-28T03:16:52;98460.94;;;-3.30;83.10
1371;BME280;14306;49.942;11.570;2023-02-28T03:19:45;98453.94;;;-3.37;82.90
1371;BME280;14306;49.942;11.570;2023-02-28T03:22:28;98457.66;;;-3.32;83.69
1371;BME280;14306;49.942;11.570;2023-02-28T03:25:04;98454.81;;;-3.30;82.81
1371;BME280;14306;49.942;11.570;2023-02-28T03:27:39;98452.69;;;-3.41;83.21
1371;BME280;14306;49.942;11.570;2023-02-28T03:30:13;98450.81;;;-3.47;83.46
1371;BME280;14306;49.942;11.570;2023-02-28T03:32:51;98448.69;;;-3.58;83.66
1371;BME280;14306;49.942;11.570;2023-02-28T03:35:23;98451.56;;;-3.53;83.67
1371;BME280;14306;49.942;11.570;2023-02-28T03:38:00;98456.63;;;-3.58;84.09
1371;BME280;14306;49.942;11.570;2023-02-28T03:40:33;98452.91;;;-3.64;83.84
1371;BME280;14306;49.942;11.570;2023-02-28T03:43:10;98455.59;;;-3.57;84.22
1371;BME280;14306;49.942;11.570;2023-02-28T03:45:41;98452.81;;;-3.49;84.28
1371;BME280;14306;49.942;11.570;2023-02-28T03:48:15;98457.06;;;-3.34;84.16
1371;BME280;14306;49.942;11.570;2023-02-28T03:50:46;98458.78;;;-3.20;84.46
1371;BME280;14306;49.942;11.570;2023-02-28T03:53:22;98459.09;;;-3.29;83.68
1371;BME280;14306;49.942;11.570;2023-02-28T03:55:54;98463.16;;;-3.33;83.62
1371;BME280;14306;49.942;11.570;2023-02-28T03:58:27;98464.72;;;-3.39;83.88
1371;BME280;14306;49.942;11.570;2023-02-28T04:01:05;98465.03;;;-3.48;83.50
1371;BME280;14306;49.942;11.570;2023-02-28T04:03:36;98468.47;;;-3.54;84.19
1371;BME280;14306;49.942;11.570;2023-02-28T04:06:07;98466.69;;;-3.47;83.53
1371;BME280;14306;49.942;11.570;2023-02-28T04:08:43;98465.91;;;-3.41;83.61
1371;BME280;14306;49.942;11.570;2023-02-28T04:11:18;98461.69;;;-3.36;83.35
1371;BME280;14306;49.942;11.570;2023-02-28T04:13:48;98472.47;;;-3.37;83.65
1371;BME280;14306;49.942;11.570;2023-02-28T04:16:16;98474.19;;;-3.30;83.54
1371;BME280;14306;49.942;11.570;2023-02-28T04:19:01;98476.31;;;-3.40;83.85
1371;BME280;14306;49.942;11.570;2023-02-28T04:21:31;98467.72;;;-3.00;83.39
1371;BME280;14306;49.942;11.570;2023-02-28T04:24:02;98478.06;;;-2.77;83.49
1371;BME280;14306;49.942;11.570;2023-02-28T04:26:30;98476.94;;;-2.28;82.93
1371;BME280;14306;49.942;11.570;2023-02-28T04:29:00;98479.34;;;-2.33;82.45
1371;BME280;14306;49.942;11.570;2023-02-28T04:31:30;98477.88;;;-2.01;81.37
1371;BME280;14306;49.942;11.570;2023-02-28T04:34:00;98477.50;;;-1.98;81.19
1371;BME280;14306;49.942;11.570;2023-02-28T04:36:29;98478.56;;;-1.86;80.24
1371;BME280;14306;49.942;11.570;2023-02-28T04:38:58;98480.16;;;-1.92;80.28
1371;BME280;14306;49.942;11.570;2023-02-28T04:41:28;98475.53;;;-1.77;79.27
1371;BME280;14306;49.942;11.570;2023-02-28T04:43:58;98483.47;;;-1.77;79.56
1371;BME280;14306;49.942;11.570;2023-02-28T04:46:26;98478.56;;;-1.86;79.17
1371;BME280;14306;49.942;11.570;2023-02-28T04:48:54;98480.34;;;-1.93;79.24
1371;BME280;14306;49.942;11.570;2023-02-28T04:51:22;98481.78;;;-1.97;79.82
1371;BME280;14306;49.942;11.570;2023-02-28T04:53:50;98481.97;;;-1.99;79.88
1371;BME280;14306;49.942;11.570;2023-02-28T04:56:20;98482.44;;;-1.89;79.90
1371;BME280;14306;49.942;11.570;2023-02-28T04:58:49;98483.41;;;-1.90;80.11
1371;BME280;14306;49.942;11.570;2023-02-28T05:01:23;98493.06;;;-1.82;80.28
1371;BME280;14306;49.942;11.570;2023-02-28T05:03:53;98492.69;;;-1.73;79.42
1371;BME280;14306;49.942;11.570;2023-02-28T05:06:24;98493.91;;;-1.75;79.57
1371;BME280;14306;49.942;11.570;2023-02-28T05:08:54;98494.97;;;-1.63;79.19
1371;BME280;14306;49.942;11.570;2023-02-28T05:11:24;98485.13;;;-1.76;79.43
1371;BME280;14306;49.942;11.570;2023-02-28T05:13:55;98490.81;;;-1.72;79.39
1371;BME280;14306;49.942;11.570;2023-02-28T05:16:24;98492.31;;;-1.63;78.84
1371;BME280;14306;49.942;11.570;2023-02-28T05:18:52;98490.88;;;-1.59;78.38
1371;BME280;14306;49.942;11.570;2023-02-28T05:21:25;98493.56;;;-1.40;78.30
1371;BME280;14306;49.942;11.570;2023-02-28T05:23:55;98497.06;;;-1.39;78.52
1371;BME280;14306;49.942;11.570;2023-02-28T05:26:25;98490.09;;;-1.40;78.09
1371;BME280;14306;49.942;11.570;2023-02-28T05:28:55;98489.28;;;-1.34;78.21
1371;BME280;14306;49.942;11.570;2023-02-28T05:31:24;98493.41;;;-1.19;77.62
1371;BME280;14306;49.942;11.570;2023-02-28T05:33:53;98494.63;;;-1.21;77.63
1371;BME280;14306;49.942;11.570;2023-02-28T05:36:21;98495.47;;;-1.08;77.54
1371;BME280;14306;49.942;11.570;2023-02-28T05:38:50;98488.72;;;-1.10;77.52
1371;BME280;14306;49.942;11.570;2023-02-28T05:41:19;98490.56;;;-1.11;77.19
1371;BME280;14306;49.942;11.570;2023-02-28T05:43:48;98491.16;;;-1.15;77.51
1371;BME280;14306;49.942;11.570;2023-02-28T05:46:18;98484.81;;;-1.21;77.39
1371;BME280;14306;49.942;11.570;2023-02-28T05:48:47;98490.16;;;-1.14;77.54
1371;BME280;14306;49.942;11.570;2023-02-28T05:51:16;98491.53;;;-1.25;78.19
1371;BME280;14306;49.942;11.570;2023-02-28T05:53:45;98495.03;;;-1.24;77.46
1371;BME280;14306;49.942;11.570;2023-02-28T05:56:15;98488.28;;;-1.20;77.44
1371;BME280;14306;49.942;11.570;2023-02-28T05:58:43;98498.53;;;-1.17;77.06
1371;BME280;14306;49.942;11.570;2023-02-28T06:01:33;98495.25;;;-1.13;76.82
1371;BME280;14306;49.942;11.570;2023-02-28T06:04:04;98495.25;;;-1.13;77.31
1371;BME280;14306;49.942;11.570;2023-02-28T06:06:35;98494.63;;;-1.08;77.04
1371;BME280;14306;49.942;11.570;2023-02-28T06:09:04;98499.94;;;-1.02;77.25
1371;BME280;14306;49.942;11.570;2023-02-28T06:11:33;98497.53;;;-1.03;76.39
1371;BME280;14306;49.942;11.570;2023-02-28T06:14:03;98503.44;;;-1.14;76.44
1371;BME280;14306;49.942;11.570;2023-02-28T06:16:34;98509.16;;;-0.85;76.21
1371;BME280;14306;49.942;11.570;2023-02-28T06:19:03;98510.19;;;-0.73;75.80
1371;BME280;14306;49.942;11.570;2023-02-28T06:21:32;98515.31;;;-0.71;75.82
1371;BME280;14306;49.942;11.570;2023-02-28T06:24:01;98517.34;;;-0.60;75.24
1371;BME280;14306;49.942;11.570;2023-02-28T06:26:30;98512.44;;;-0.76;75.96
1371;BME280;14306;49.942;11.570;2023-02-28T06:28:59;98519.78;;;-0.72;75.43
1371;BME280;14306;49.942;11.570;2023-02-28T06:31:28;98522.06;;;-0.82;75.51
1371;BME280;14306;49.942;11.570;2023-02-28T06:34:01;98526.94;;;-0.53;75.43
1371;BME280;14306;49.942;11.570;2023-02-28T06:36:29;98522.00;;;-0.36;74.75
1371;BME280;14306;49.942;11.570;2023-02-28T06:38:58;98530.84;;;-0.42;74.92
1371;BME280;14306;49.942;11.570;2023-02-28T06:41:27;98531.19;;;-0.26;73.46
1371;BME280;14306;49.942;11.570;2023-02-28T06:44:11;98537.75;;;-0.15;73.55
1371;BME280;14306;49.942;11.570;2023-02-28T06:46:41;98541.03;;;-0.20;73.59
1371;BME280;14306;49.942;11.570;2023-02-28T06:49:13;98539.75;;;-0.11;72.50
1371;BME280;14306;49.942;11.570;2023-02-28T06:51:43;98540.38;;;-0.09;73.06
1371;BME280;14306;49.942;11.570;2023-02-28T06:54:13;98551.06;;;-0.35;73.54
1371;BME280;14306;49.942;11.570;2023-02-28T06:56:41;98545.06;;;-0.04;73.16
1371;BME280;14306;49.942;11.570;2023-02-28T06:59:10;98539.31;;;0.12;72.34
1371;BME280;14306;49.942;11.570;2023-02-28T07:01:38;98545.22;;;0.14;72.93
1371;BME280;14306;49.942;11.570;2023-02-28T07:04:07;98544.59;;;0.25;71.71
1371;BME280;14306;49.942;11.570;2023-02-28T07:06:38;98547.72;;;0.60;71.36
1371;BME280;14306;49.942;11.570;2023-02-28T07:09:07;98549.97;;;0.56;71.77
1371;BME280;14306;49.942;11.570;2023-02-28T07:11:36;98551.50;;;0.39;71.65
1371;BME280;14306;49.942;11.570;2023-02-28T07:14:05;98557.19;;;0.56;71.35
1371;BME280;14306;49.942;11.570;2023-02-28T07:16:33;98558.97;;;0.62;71.11
1371;BME280;14306;49.942;11.570;2023-02-28T07:19:02;98556.22;;;0.81;71.00
1371;BME280;14306;49.942;11.570;2023-02-28T07:21:31;98557.47;;;0.79;71.02
1371;BME280;14306;49.942;11.570;2023-02-28T07:24:01;98568.75;;;0.74;70.63
1371;BME280;14306;49.942;11.570;2023-02-28T07:26:30;98567.84;;;0.93;69.92
1371;BME280;14306;49.942;11.570;2023-02-28T07:29:01;98565.13;;;1.00;70.68
1371;BME280;14306;49.942;11.570;2023-02-28T07:31:30;98565.38;;;0.54;71.08
1371;BME280;14306;49.942;11.570;2023-02-28T07:33:59;98567.25;;;1.16;70.37
1371;BME280;14306;49.942;11.570;2023-02-28T07:36:28;98565.41;;;0.85;70.31
1371;BME280;14306;49.942;11.570;2023-02-28T07:38:58;98566.13;;;1.05;70.14
1371;BME280;14306;49.942;11.570;2023-02-28T07:41:28;98560.78;;;1.05;70.87
1371;BME280;14306;49.942;11.570;2023-02-28T07:43:57;98563.47;;;1.30;68.73
1371;BME280;14306;49.942;11.570;2023-02-28T07:46:26;98565.13;;;1.55;69.66
1371;BME280;14306;49.942;11.570;2023-02-28T07:48:56;98575.16;;;1.60;69.88
1371;BME280;14306;49.942;11.570;2023-02-28T07:51:27;98569.03;;;1.77;68.13
1371;BME280;14306;49.942;11.570;2023-02-28T07:53:56;98574.88;;;1.92;67.27
1371;BME280;14306;49.942;11.570;2023-02-28T07:56:25;98571.28;;;1.98;67.62
1371;BME280;14306;49.942;11.570;2023-02-28T07:58:55;98576.38;;;2.24;66.07
1371;BME280;14306;49.942;11.570;2023-02-28T08:01:24;98571.38;;;2.46;67.18
1371;BME280;14306;49.942;11.570;2023-02-28T08:03:53;98577.09;;;2.67;65.68
1371;BME280;14306;49.942;11.570;2023-02-28T08:06:23;98578.44;;;2.76;63.84
1371;BME280;14306;49.942;11.570;2023-02-28T08:08:52;98576.13;;;3.09;64.66
1371;BME280;14306;49.942;11.570;2023-02-28T08:11:24;98560.94;;;3.21;63.55
1371;BME280;14306;49.942;11.570;2023-02-28T08:13:55;98580.19;;;3.53;61.76
1371;BME280;14306;49.942;11.570;2023-02-28T08:16:23;98564.06;;;3.30;61.47
1371;BME280;14306;49.942;11.570;2023-02-28T08:18:52;98587.56;;;4.50;59.51
1371;BME280;14306;49.942;11.570;2023-02-28T08:21:21;98581.06;;;4.11;60.03
1371;BME280;14306;49.942;11.570;2023-02-28T08:23:51;98604.19;;;5.75;60.08
1371;BME280;14306;49.942;11.570;2023-02-28T08:26:20;98627.72;;;6.89;52.11
1371;BME280;14306;49.942;11.570;2023-02-28T08:28:49;98616.94;;;7.10;53.26
1371;BME280;14306;49.942;11.570;2023-02-28T08:31:20;98596.09;;;5.42;52.58
1371;BME280;14306;49.942;11.570;2023-02-28T08:33:50;98603.88;;;5.72;51.63
1371;BME280;14306;49.942;11.570;2023-02-28T08:36:20;98591.78;;;5.58;51.03
1371;BME280;14306;49.942;11.570;2023-02-28T08:38:49;98610.56;;;6.19;48.68
1371;BME280;14306;49.942;11.570;2023-02-28T08:41:17;98587.00;;;5.60;48.53
1371;BME280;14306;49.942;11.570;2023-02-28T08:43:47;98567.09;;;4.09;53.03
1371;BME280;14306;49.942;11.570;2023-02-28T08:46:15;98562.88;;;3.90;54.53
1371;BME280;14306;49.942;11.570;2023-02-28T08:48:45;98568.22;;;3.78;54.06
1371;BME280;14306;49.942;11.570;2023-02-28T08:51:16;98545.78;;;3.15;54.28
1371;BME280;14306;49.942;11.570;2023-02-28T08:53:49;98556.59;;;3.61;54.63
1371;BME280;14306;49.942;11.570;2023-02-28T08:56:19;98565.47;;;3.32;53.56
1371;BME280;14306;49.942;11.570;2023-02-28T08:58:48;98590.38;;;3.74;52.71
1371;BME280;14306;49.942;11.570;2023-02-28T09:01:20;98594.31;;;5.20;49.91
1371;BME280;14306;49.942;11.570;2023-02-28T09:03:51;98571.50;;;3.92;51.36
1371;BME280;14306;49.942;11.570;2023-02-28T09:06:22;98565.75;;;3.42;53.34
1371;BME280;14306;49.942;11.570;2023-02-28T09:08:51;98583.72;;;4.46;51.10
1371;BME280;14306;49.942;11.570;2023-02-28T09:11:20;98580.81;;;3.89;52.30
1371;BME280;14306;49.942;11.570;2023-02-28T09:13:50;98573.28;;;4.09;51.84
1371;BME280;14306;49.942;11.570;2023-02-28T09:16:18;98572.63;;;3.50;52.71
1371;BME280;14306;49.942;11.570;2023-02-28T09:18:47;98588.03;;;3.77;53.02
1371;BME280;14306;49.942;11.570;2023-02-28T09:21:18;98556.91;;;3.01;53.63
1371;BME280;14306;49.942;11.570;2023-02-28T09:23:51;98580.59;;;3.79;53.20
1371;BME280;14306;49.942;11.570;2023-02-28T09:26:22;98575.94;;;3.86;52.36
1371;BME280;14306;49.942;11.570;2023-02-28T09:28:52;98581.53;;;4.31;52.25
1371;BME280;14306;49.942;11.570;2023-02-28T09:31:23;98586.53;;;3.70;52.76
1371;BME280;14306;49.942;11.570;2023-02-28T09:33:55;98593.97;;;4.49;51.74
1371;BME280;14306;49.942;11.570;2023-02-28T09:36:26;98601.75;;;4.73;51.17
1371;BME280;14306;49.942;11.570;2023-02-28T09:39:09;98571.97;;;3.77;52.05
1371;BME280;14306;49.942;11.570;2023-02-28T09:41:41;98603.28;;;4.58;51.74
1371;BME280;14306;49.942;11.570;2023-02-28T09:44:19;98610.72;;;4.79;50.67
1371;BME280;14306;49.942;11.570;2023-02-28T09:46:55;98571.00;;;3.49;51.64
1371;BME280;14306;49.942;11.570;2023-02-28T09:49:34;98565.13;;;3.29;53.67
1371;BME280;14306;49.942;11.570;2023-02-28T09:52:10;98598.41;;;4.32;51.18
1371;BME280;14306;49.942;11.570;2023-02-28T09:54:39;98604.44;;;4.73;51.06
1371;BME280;14306;49.942;11.570;2023-02-28T09:57:13;98607.09;;;4.73;50.57
1371;BME280;14306;49.942;11.570;2023-02-28T09:59:59;98617.16;;;5.78;50.39
1371;BME280;14306;49.942;11.570;2023-02-28T10:02:53;98615.22;;;5.46;48.78
1371;BME280;14306;49.942;11.570;2023-02-28T10:05:28;98596.19;;;4.91;50.04
1371;BME280;14306;49.942;11.570;2023-02-28T10:08:06;98612.06;;;5.49;48.66
1371;BME280;14306;49.942;11.570;2023-02-28T10:10:40;98625.28;;;5.67;48.19
1371;BME280;14306;49.942;11.570;2023-02-28T10:13:17;98607.13;;;5.74;47.57
1371;BME280;14306;49.942;11.570;2023-02-28T10:15:52;98621.34;;;5.86;47.74
1371;BME280;14306;49.942;11.570;2023-02-28T10:18:26;98604.69;;;5.00;48.87
1371;BME280;14306;49.942;11.570;2023-02-28T10:20:59;98606.09;;;5.30;48.24
1371;BME280;14306;49.942;11.570;2023-02-28T10:23:34;98594.66;;;5.51;48.28
1371;BME280;14306;49.942;11.570;2023-02-28T10:26:11;98598.16;;;5.24;48.11
1371;BME280;14306;49.942;11.570;2023-02-28T10:28:43;98607.44;;;5.61;47.18
1371;BME280;14306;49.942;11.570;2023-02-28T10:31:14;98608.34;;;5.22;47.87
1371;BME280;14306;49.942;11.570;2023-02-28T10:33:46;98597.25;;;4.90;49.01
1371;BME280;14306;49.942;11.570;2023-02-28T10:36:17;98603.13;;;4.64;49.11
1371;BME280;14306;49.942;11.570;2023-02-28T10:38:49;98591.63;;;4.64;48.39
1371;BME280;14306;49.942;11.570;2023-02-28T10:41:28;98609.28;;;5.16;47.75
1371;BME280;14306;49.942;11.570;2023-02-28T10:44:15;98600.69;;;5.58;46.35
1371;BME280;14306;49.942;11.570;2023-02-28T10:46:46;98599.56;;;4.98;47.36
1371;BME280;14306;49.942;11.570;2023-02-28T10:49:20;98601.00;;;5.17;47.77
1371;BME280;14306;49.942;11.570;2023-02-28T10:51:53;98592.78;;;5.52;47.03
1371;BME280;14306;49.942;11.570;2023-02-28T10:54:28;98603.03;;;5.55;47.47
1371;BME280;14306;49.942;11.570;2023-02-28T10:57:13;98600.34;;;5.55;45.47
1371;BME280;14306;49.942;11.570;2023-02-28T10:59:44;98598.91;;;5.64;46.36
1371;BME280;14306;49.942;11.570;2023-02-28T11:02:31;98592.72;;;5.19;46.71
1371;BME280;14306;49.942;11.570;2023-02-28T11:05:00;98599.75;;;5.36;46.60
1371;BME280;14306;49.942;11.570;2023-02-28T11:07:29;98581.63;;;4.87;47.41
1371;BME280;14306;49.942;11.570;2023-02-28T11:10:18;98600.31;;;5.10;47.74
1371;BME280;14306;49.942;11.570;2023-02-28T11:12:48;98597.75;;;5.15;46.90
1371;BME280;14306;49.942;11.570;2023-02-28T11:15:22;98590.50;;;5.44;46.32
1371;BME280;14306;49.942;11.570;2023-02-28T11:17:54;98604.94;;;5.71;45.78
1371;BME280;14306;49.942;11.570;2023-02-28T11:20:25;98587.00;;;5.15;47.44
1371;BME280;14306;49.942;11.570;2023-02-28T11:22:56;98588.78;;;5.54;46.37
1371;BME280;14306;49.942;11.570;2023-02-28T11:25:29;98603.16;;;6.09;45.55
1371;BME280;14306;49.942;11.570;2023-02-28T11:27:59;98588.97;;;5.20;46.83
1371;BME280;14306;49.942;11.570;2023-02-28T11:30:34;98574.41;;;4.76;46.98
1371;BME280;14306;49.942;11.570;2023-02-28T11:33:23;98589.72;;;5.04;47.52
1371;BME280;14306;49.942;11.570;2023-02-28T11:35:52;98569.00;;;4.48;48.63
1371;BME280;14306;49.942;11.570;2023-02-28T11:38:22;98565.88;;;4.51;48.63
1371;BME280;14306;49.942;11.570;2023-02-28T11:41:03;98569.03;;;4.37;48.87
1371;BME280;14306;49.942;11.570;2023-02-28T11:43:50;98570.25;;;3.94;49.96
1371;BME280;14306;49.942;11.570;2023-02-28T11:46:30;98550.53;;;3.77;50.19
1371;BME280;14306;49.942;11.570;2023-02-28T11:49:10;98556.69;;;4.12;50.10
1371;BME280;14306;49.942;11.570;2023-02-28T11:51:49;98557.25;;;4.26;49.92
1371;BME280;14306;49.942;11.570;2023-02-28T11:57:27;98558.69;;;4.05;50.05
1371;BME280;14306;49.942;11.570;2023-02-28T12:00:03;98562.28;;;4.22;49.42
1371;BME280;14306;49.942;11.570;2023-02-28T12:02:48;98551.09;;;4.14;49.47
1371;BME280;14306;49.942;11.570;2023-02-28T12:05:27;98575.03;;;4.04;50.09
1371;BME280;14306;49.942;11.570;2023-02-28T12:08:07;98562.81;;;4.48;49.41
1371;BME280;14306;49.942;11.570;2023-02-28T12:10:46;98560.06;;;4.31;49.67
1371;BME280;14306;49.942;11.570;2023-02-28T12:13:26;98565.53;;;4.36;50.12
1371;BME280;14306;49.942;11.570;2023-02-28T12:16:16;98567.28;;;4.31;50.00
1371;BME280;14306;49.942;11.570;2023-02-28T12:18:56;98546.31;;;4.39;48.73
1371;BME280;14306;49.942;11.570;2023-02-28T12:21:35;98543.38;;;4.41;49.46
1371;BME280;14306;49.942;11.570;2023-02-28T12:24:35;98532.38;;;4.54;48.86
1371;BME280;14306;49.942;11.570;2023-02-28T12:27:10;98542.81;;;4.78;48.71
1371;BME280;14306;49.942;11.570;2023-02-28T12:29:48;98535.06;;;4.65;48.27
1371;BME280;14306;49.942;11.570;2023-02-28T12:32:21;98533.13;;;4.77;48.91
1371;BME280;14306;49.942;11.570;2023-02-28T12:34:56;98540.03;;;5.01;49.40
1371;BME280;14306;49.942;11.570;2023-02-28T12:37:31;98543.06;;;5.21;48.53
1371;BME280;14306;49.942;11.570;2023-02-28T12:40:04;98542.28;;;4.65;48.88
1371;BME280;14306;49.942;11.570;2023-02-28T12:42:39;98548.56;;;4.70;49.03
1371;BME280;14306;49.942;11.570;2023-02-28T12:45:15;98526.31;;;4.58;49.13
1371;BME280;14306;49.942;11.570;2023-02-28T12:47:48;98532.53;;;4.75;49.06
1371;BME280;14306;49.942;11.570;2023-02-28T12:50:19;98535.09;;;5.10;48.02
1371;BME280;14306;49.942;11.570;2023-02-28T12:52:54;98536.09;;;4.64;48.97
1371;BME280;14306;49.942;11.570;2023-02-28T12:55:32;98531.31;;;4.94;48.32
1371;BME280;14306;49.942;11.570;2023-02-28T12:58:12;98536.72;;;4.83;49.21
1371;BME280;14306;49.942;11.570;2023-02-28T13:00:54;98545.06;;;5.42;47.94
1371;BME280;14306;49.942;11.570;2023-02-28T13:04:05;98543.88;;;5.05;47.76
1371;BME280;14306;49.942;11.570;2023-02-28T13:09:40;98542.63;;;5.41;46.90
1371;BME280;14306;49.942;11.570;2023-02-28T13:12:13;98539.75;;;5.31;47.10
1371;BME280;14306;49.942;11.570;2023-02-28T13:14:43;98532.94;;;4.95;47.47
1371;BME280;14306;49.942;11.570;2023-02-28T13:17:18;98536.72;;;5.11;47.75
1371;BME280;14306;49.942;11.570;2023-02-28T13:19:57;98540.31;;;5.16;46.43
1371;BME280;14306;49.942;11.570;2023-02-28T13:22:39;98536.66;;;4.94;47.99
1371;BME280;14306;49.942;11.570;2023-02-28T13:44:03;98541.81;;;5.73;46.38
1371;BME280;14306;49.942;11.570;2023-02-28T13:46:35;98542.25;;;5.65;46.68
1371;BME280;14306;49.942;11.570;2023-02-28T13:49:20;98527.81;;;5.38;46.50
1371;BME280;14306;49.942;11.570;2023-02-28T13:51:54;98526.75;;;5.56;46.29
1371;BME280;14306;49.942;11.570;2023-02-28T13:54:39;98526.59;;;5.46;46.71
1371;BME280;14306;49.942;11.570;2023-02-28T13:57:21;98534.06;;;5.27;46.78
1371;BME280;14306;49.942;11.570;2023-02-28T14:00:02;98516.50;;;5.36;47.03
1371;BME280;14306;49.942;11.570;2023-02-28T14:02:48;98527.16;;;5.64;46.75